createdAt,value
2017-08-24T00:01:19.286Z,100242.42
2017-08-24T00:03:46.679Z,100243.42
2017-08-24T00:06:14.079Z,100242.22
2017-08-24T00:08:41.627Z,100241.85
2017-08-24T00:11:09.022Z,100241.23
2017-08-24T00:13:36.416Z,100242.27
2017-08-24T00:16:03.823Z,100240.12
2017-08-24T00:18:31.219Z,100240.12
2017-08-24T00:20:58.615Z,100246.91
2017-08-24T00:23:26.169Z,100240.22
2017-08-24T00:25:53.558Z,100237.61
2017-08-24T00:28:20.958Z,100242.30
2017-08-24T00:30:48.822Z,100241.83
2017-08-24T00:33:16.238Z,100245.06
2017-08-24T00:35:43.634Z,100240.87
2017-08-24T00:38:11.077Z,100240.37
2017-08-24T00:40:38.470Z,100239.94
2017-08-24T00:43:05.868Z,100241.10
2017-08-24T00:45:33.278Z,100239.22
2017-08-24T00:48:00.678Z,100245.03
2017-08-24T00:50:28.073Z,100239.91
2017-08-24T00:52:56.015Z,100238.08
2017-08-24T00:55:23.415Z,100242.03
2017-08-24T00:57:50.810Z,100234.10
2017-08-24T01:00:18.386Z,100241.41
2017-08-24T01:02:45.791Z,100241.51
2017-08-24T01:05:13.186Z,100239.82
2017-08-24T01:07:40.702Z,100238.02
2017-08-24T01:10:08.093Z,100233.43
2017-08-24T01:12:35.495Z,100240.33
2017-08-24T01:15:03.003Z,100236.14
2017-08-24T01:17:30.405Z,100243.98
2017-08-24T01:19:57.798Z,100248.61
2017-08-24T01:22:25.240Z,100251.76
2017-08-24T01:24:52.639Z,100247.80
2017-08-24T01:27:20.033Z,100249.42
2017-08-24T01:29:47.442Z,100249.16
2017-08-24T01:32:14.831Z,100255.17
2017-08-24T01:34:42.230Z,100254.33
2017-08-24T01:37:09.679Z,100259.09
2017-08-24T01:39:37.075Z,100270.23
2017-08-24T01:42:04.471Z,100276.04
2017-08-24T01:44:31.916Z,100267.72
2017-08-24T01:46:59.305Z,100266.84
2017-08-24T01:49:26.703Z,100265.08
2017-08-24T01:51:54.139Z,100264.48
2017-08-24T01:54:21.541Z,100268.86
2017-08-24T01:56:48.947Z,100272.51
2017-08-24T01:59:16.509Z,100268.55
2017-08-24T02:01:43.904Z,100281.84
2017-08-24T02:04:11.323Z,100275.68
2017-08-24T02:06:38.741Z,100273.15
2017-08-24T02:09:06.143Z,100273.33
2017-08-24T02:11:33.539Z,100274.18
2017-08-24T02:14:01.247Z,100273.23
2017-08-24T02:16:28.651Z,100272.46
2017-08-24T02:18:56.059Z,100275.48
2017-08-24T02:21:23.463Z,100275.63
2017-08-24T02:23:50.862Z,100272.90
2017-08-24T02:26:18.258Z,100279.02
2017-08-24T02:28:45.807Z,100279.98
2017-08-24T02:31:13.203Z,100279.57
2017-08-24T02:33:40.598Z,100280.09
2017-08-24T02:36:08.007Z,100278.61
2017-08-24T02:38:35.402Z,100286.20
2017-08-24T02:41:02.790Z,100285.38
2017-08-24T02:43:30.574Z,100283.76
2017-08-24T02:45:57.974Z,100284.70
2017-08-24T02:48:25.366Z,100282.27
2017-08-24T02:50:52.871Z,100293.63
2017-08-24T02:53:20.266Z,100295.12
2017-08-24T02:55:47.663Z,100300.39
2017-08-24T02:58:15.242Z,100296.47
2017-08-24T03:00:42.643Z,100301.19
2017-08-24T03:03:10.041Z,100306.80
2017-08-24T03:05:37.542Z,100310.33
2017-08-24T03:08:04.939Z,100304.35
2017-08-24T03:10:32.326Z,100322.27
2017-08-24T03:12:59.746Z,100320.08
2017-08-24T03:15:27.139Z,100319.09
2017-08-24T03:17:54.534Z,100324.13
2017-08-24T03:20:21.970Z,100333.57
2017-08-24T03:22:49.366Z,100330.21
2017-08-24T03:25:16.766Z,100325.75
2017-08-24T03:27:44.207Z,100330.62
2017-08-24T03:30:11.603Z,100332.67
2017-08-24T03:32:38.998Z,100337.70
2017-08-24T03:35:06.438Z,100340.23
2017-08-24T03:37:33.830Z,100344.17
2017-08-24T03:40:01.222Z,100339.05
2017-08-24T03:42:28.630Z,100333.73
2017-08-24T03:44:56.027Z,100336.41
2017-08-24T03:47:23.422Z,100340.31
2017-08-24T03:49:51.192Z,100342.54
2017-08-24T03:52:18.581Z,100346.88
2017-08-24T03:54:45.983Z,100348.05
2017-08-24T03:57:13.542Z,100342.37
2017-08-24T03:59:40.934Z,100348.55
2017-08-24T04:02:08.330Z,100342.83
2017-08-24T04:04:35.883Z,100347.33
2017-08-24T04:07:03.287Z,100348.18
2017-08-24T04:09:30.683Z,100351.08
2017-08-24T04:11:58.234Z,100346.98
2017-08-24T04:14:25.630Z,100352.55
2017-08-24T04:16:53.030Z,100355.23
2017-08-24T04:19:20.582Z,100355.63
2017-08-24T04:21:47.982Z,100354.25
2017-08-24T04:24:15.386Z,100356.98
2017-08-24T04:26:42.806Z,100365.66
2017-08-24T04:29:10.198Z,100373.37
2017-08-24T04:31:37.595Z,100362.87
2017-08-24T04:34:05.002Z,100368.00
2017-08-24T04:36:32.398Z,100370.76
2017-08-24T04:38:59.790Z,100377.13
2017-08-24T04:41:27.338Z,100370.13
2017-08-24T04:43:54.734Z,100373.48
2017-08-24T04:46:22.134Z,100374.62
2017-08-24T04:48:49.642Z,100382.50
2017-08-24T04:51:17.051Z,100378.45
2017-08-24T04:53:44.438Z,100386.94
2017-08-24T04:56:11.989Z,100391.45
2017-08-24T04:58:39.387Z,100396.31
2017-08-24T05:01:06.794Z,100399.73
2017-08-24T05:03:34.194Z,100406.64
2017-08-24T05:06:01.592Z,100401.88
2017-08-24T05:08:28.998Z,100393.36
2017-08-24T05:10:56.590Z,100410.86
2017-08-24T05:13:23.986Z,100411.19
2017-08-24T05:15:51.385Z,100408.88
2017-08-24T05:18:18.802Z,100409.53
2017-08-24T05:20:46.198Z,100400.55
2017-08-24T05:23:13.595Z,100401.64
2017-08-24T05:25:41.147Z,100406.84
2017-08-24T05:28:08.542Z,100401.77
2017-08-24T05:30:35.938Z,100395.05
2017-08-24T05:33:03.502Z,100395.36
2017-08-24T05:35:30.888Z,100394.18
2017-08-24T05:37:58.290Z,100407.27
2017-08-24T05:40:25.728Z,100412.66
2017-08-24T05:42:53.130Z,100408.96
2017-08-24T05:45:20.522Z,100411.45
2017-08-24T05:47:48.030Z,100413.67
2017-08-24T05:50:15.442Z,100420.59
2017-08-24T05:52:42.838Z,100422.81
2017-08-24T05:55:10.344Z,100423.15
2017-08-24T05:57:37.742Z,100433.02
2017-08-24T06:00:05.139Z,100427.83
2017-08-24T06:02:32.683Z,100430.17
2017-08-24T06:05:00.079Z,100437.06
2017-08-24T06:07:27.479Z,100432.05
2017-08-24T06:09:54.978Z,100443.13
2017-08-24T06:12:22.377Z,100445.51
2017-08-24T06:14:49.766Z,100446.36
2017-08-24T06:17:17.207Z,100450.01
2017-08-24T06:19:44.855Z,100455.58
2017-08-24T06:22:12.253Z,100446.68
2017-08-24T06:24:39.804Z,100455.47
2017-08-24T06:27:07.202Z,100458.30
2017-08-24T06:29:34.599Z,100459.08
2017-08-24T06:32:02.015Z,100466.94
2017-08-24T06:34:29.410Z,100460.95
2017-08-24T06:36:56.808Z,100466.73
2017-08-24T06:39:24.225Z,100460.40
2017-08-24T06:41:51.623Z,100457.59
2017-08-24T06:44:19.018Z,100458.00
2017-08-24T06:46:46.607Z,100453.05
2017-08-24T06:49:14.014Z,100460.42
2017-08-24T06:51:41.411Z,100449.53
2017-08-24T06:54:08.827Z,100456.88
2017-08-24T06:56:36.223Z,100459.41
2017-08-24T06:59:03.621Z,100454.75
2017-08-24T07:01:31.030Z,100457.45
2017-08-24T07:03:58.434Z,100453.92
2017-08-24T07:06:25.826Z,100448.33
2017-08-24T07:08:53.256Z,100456.31
2017-08-24T07:11:20.656Z,100451.30
2017-08-24T07:13:48.050Z,100450.70
2017-08-24T07:16:15.610Z,100451.20
2017-08-24T07:18:43.006Z,100453.37
2017-08-24T07:21:10.400Z,100455.97
2017-08-24T07:23:37.822Z,100467.63
2017-08-24T07:26:05.223Z,100465.73
2017-08-24T07:28:32.617Z,100472.16
2017-08-24T07:31:00.130Z,100472.14
2017-08-24T07:33:27.526Z,100474.83
2017-08-24T07:35:54.922Z,100471.04
2017-08-24T07:38:22.430Z,100473.53
2017-08-24T07:40:49.834Z,100465.50
2017-08-24T07:43:17.235Z,100472.77
2017-08-24T07:45:44.806Z,100467.06
2017-08-24T07:48:12.185Z,100481.02
2017-08-24T07:50:39.574Z,100484.17
2017-08-24T07:53:07.127Z,100475.81
2017-08-24T07:55:34.519Z,100488.25
2017-08-24T07:58:01.922Z,100492.05
2017-08-24T08:00:29.345Z,100500.39
2017-08-24T08:02:56.742Z,100490.23
2017-08-24T08:05:24.138Z,100491.80
2017-08-24T08:07:51.559Z,100493.50
2017-08-24T08:10:18.954Z,100491.32
2017-08-24T08:12:46.354Z,100489.81
2017-08-24T08:15:13.795Z,100499.00
2017-08-24T08:17:41.190Z,100498.72
2017-08-24T08:20:08.586Z,100502.31
2017-08-24T08:22:36.139Z,100504.13
2017-08-24T08:25:03.534Z,100510.92
2017-08-24T08:27:30.930Z,100512.88
2017-08-24T08:29:58.357Z,100513.12
2017-08-24T08:32:25.750Z,100509.46
2017-08-24T08:34:53.146Z,100513.08
2017-08-24T08:37:20.642Z,100517.56
2017-08-24T08:39:48.041Z,100515.55
2017-08-24T08:42:15.440Z,100504.54
2017-08-24T08:44:42.964Z,100510.66
2017-08-24T08:47:10.339Z,100510.52
2017-08-24T08:49:37.730Z,100523.03
2017-08-24T08:52:05.183Z,100517.44
2017-08-24T08:54:32.579Z,100520.84
2017-08-24T08:56:59.975Z,100522.44
2017-08-24T08:59:27.385Z,100523.67
2017-08-24T09:01:54.783Z,100521.36
2017-08-24T09:04:22.195Z,100531.39
2017-08-24T09:06:49.705Z,100528.95
2017-08-24T09:09:17.103Z,100524.36
2017-08-24T09:11:44.503Z,100533.55
2017-08-24T09:14:12.046Z,100541.18
2017-08-24T09:16:39.445Z,100536.55
2017-08-24T09:19:06.842Z,100542.41
2017-08-24T09:21:34.282Z,100535.75
2017-08-24T09:24:01.688Z,100537.50
2017-08-24T09:26:29.086Z,100529.91
2017-08-24T09:28:56.954Z,100537.74
2017-08-24T09:31:24.354Z,100537.18
2017-08-24T09:33:51.743Z,100539.84
2017-08-24T09:36:19.152Z,100540.88
2017-08-24T09:38:46.546Z,100534.39
2017-08-24T09:41:13.939Z,100545.26
2017-08-24T09:43:41.491Z,100540.64
2017-08-24T09:46:08.887Z,100540.11
2017-08-24T09:48:36.286Z,100534.23
2017-08-24T09:51:03.830Z,100537.92
2017-08-24T09:53:31.235Z,100532.61
2017-08-24T09:55:58.626Z,100536.56
2017-08-24T09:58:26.410Z,100536.92
2017-08-24T10:00:53.815Z,100540.44
2017-08-24T10:03:21.206Z,100535.63
2017-08-24T10:05:48.746Z,100546.72
2017-08-24T10:08:16.142Z,100543.36
2017-08-24T10:10:43.542Z,100541.72
2017-08-24T10:13:11.047Z,100545.34
2017-08-24T10:15:38.687Z,100548.52
2017-08-24T10:18:06.082Z,100551.48
2017-08-24T10:20:33.503Z,100552.25
2017-08-24T10:23:00.898Z,100549.12
2017-08-24T10:25:28.306Z,100554.13
2017-08-24T10:27:55.735Z,100551.61
2017-08-24T10:30:23.149Z,100554.20
2017-08-24T10:32:50.527Z,100557.64
2017-08-24T10:35:17.934Z,100553.05
2017-08-24T10:37:45.331Z,100565.00
2017-08-24T10:40:12.731Z,100556.92
2017-08-24T10:42:40.278Z,100554.81
2017-08-24T10:45:07.701Z,100559.67
2017-08-24T10:47:35.094Z,100554.80
2017-08-24T10:50:02.518Z,100543.00
2017-08-24T10:52:29.939Z,100550.94
2017-08-24T10:54:57.327Z,100547.89
2017-08-24T10:57:24.740Z,100553.98
2017-08-24T10:59:52.132Z,100554.74
2017-08-24T11:02:19.526Z,100559.55
2017-08-24T11:04:46.947Z,100553.65
2017-08-24T11:07:14.338Z,100555.55
2017-08-24T11:09:41.738Z,100551.84
2017-08-24T11:12:09.294Z,100547.56
2017-08-24T11:14:36.690Z,100551.67
2017-08-24T11:17:04.086Z,100561.92
2017-08-24T11:19:31.717Z,100564.88
2017-08-24T11:21:59.114Z,100559.78
2017-08-24T11:24:26.510Z,100558.68
2017-08-24T11:26:54.296Z,100559.30
2017-08-24T11:29:21.690Z,100554.33
2017-08-24T11:31:49.090Z,100566.44
2017-08-24T11:34:16.646Z,100560.72
2017-08-24T11:36:44.043Z,100559.31
2017-08-24T11:39:11.438Z,100554.70
2017-08-24T11:41:39.253Z,100559.50
2017-08-24T11:44:06.684Z,100556.77
2017-08-24T11:46:34.057Z,100564.62
2017-08-24T11:49:01.827Z,100558.58
2017-08-24T11:51:29.223Z,100553.70
2017-08-24T11:53:56.622Z,100557.94
2017-08-24T11:56:24.182Z,100560.34
2017-08-24T11:58:51.582Z,100554.09
2017-08-24T12:01:18.979Z,100557.34
2017-08-24T12:03:46.491Z,100546.52
2017-08-24T12:06:13.890Z,100545.91
2017-08-24T12:08:41.291Z,100550.09
2017-08-24T12:11:08.848Z,100553.48
2017-08-24T12:13:36.266Z,100553.79
2017-08-24T12:16:03.659Z,100554.80
2017-08-24T12:18:31.100Z,100553.69
2017-08-24T12:20:58.503Z,100545.91
2017-08-24T12:23:25.900Z,100548.75
2017-08-24T12:25:53.312Z,100545.58
2017-08-24T12:28:20.703Z,100543.51
2017-08-24T12:30:48.101Z,100543.69
2017-08-24T12:33:15.657Z,100542.53
2017-08-24T12:35:43.046Z,100549.11
2017-08-24T12:38:10.438Z,100548.22
2017-08-24T12:40:37.852Z,100550.53
2017-08-24T12:43:05.246Z,100545.37
2017-08-24T12:45:32.644Z,100545.41
2017-08-24T12:48:00.205Z,100546.89
2017-08-24T12:50:27.589Z,100552.44
2017-08-24T12:52:55.008Z,100548.70
2017-08-24T12:55:22.766Z,100554.12
2017-08-24T12:57:50.158Z,100549.41
2017-08-24T13:00:17.555Z,100551.89
2017-08-24T13:02:45.102Z,100547.73
2017-08-24T13:05:12.503Z,100549.88
2017-08-24T13:07:39.906Z,100552.37
2017-08-24T13:10:07.314Z,100544.84
2017-08-24T13:12:34.709Z,100548.91
2017-08-24T13:15:02.105Z,100546.58
2017-08-24T13:17:29.878Z,100545.50
2017-08-24T13:19:57.282Z,100547.97
2017-08-24T13:22:24.687Z,100538.50
2017-08-24T13:24:52.297Z,100541.98
2017-08-24T13:27:19.689Z,100544.26
2017-08-24T13:29:47.083Z,100536.84
2017-08-24T13:32:14.635Z,100534.73
2017-08-24T13:34:42.030Z,100541.81
2017-08-24T13:37:09.426Z,100538.18
2017-08-24T13:39:36.871Z,100537.61
2017-08-24T13:42:04.268Z,100527.59
2017-08-24T13:44:31.663Z,100533.98
2017-08-24T13:46:59.575Z,100535.72
2017-08-24T13:49:26.988Z,100535.64
2017-08-24T13:51:54.378Z,100536.27
2017-08-24T13:54:21.943Z,100537.42
2017-08-24T13:56:49.340Z,100549.78
2017-08-24T13:59:16.735Z,100552.06
2017-08-24T14:01:44.141Z,100549.41
2017-08-24T14:04:11.543Z,100542.46
2017-08-24T14:06:38.946Z,100542.66
2017-08-24T14:09:06.361Z,100540.03
2017-08-24T14:11:33.755Z,100546.68
2017-08-24T14:14:01.152Z,100540.33
2017-08-24T14:16:28.694Z,100544.03
2017-08-24T14:18:56.098Z,100539.22
2017-08-24T14:21:23.504Z,100545.24
2017-08-24T14:23:51.050Z,100541.48
2017-08-24T14:26:18.447Z,100543.88
2017-08-24T14:28:45.847Z,100542.72
2017-08-24T14:31:13.350Z,100548.84
2017-08-24T14:33:40.750Z,100539.84
2017-08-24T14:36:08.154Z,100539.17
2017-08-24T14:38:35.698Z,100540.33
2017-08-24T14:41:03.950Z,100541.89
2017-08-24T14:43:31.347Z,100549.14
2017-08-24T14:45:58.785Z,100543.03
2017-08-24T14:48:26.190Z,100540.52
2017-08-24T14:50:53.590Z,100539.72
2017-08-24T14:53:21.093Z,100542.20
2017-08-24T14:55:48.501Z,100544.36
2017-08-24T14:58:15.891Z,100540.16
2017-08-24T15:00:43.307Z,100541.34
2017-08-24T15:03:10.706Z,100548.65
2017-08-24T15:05:38.098Z,100539.13
2017-08-24T15:08:05.747Z,100541.78
2017-08-24T15:10:33.147Z,100541.35
2017-08-24T15:13:00.538Z,100548.34
2017-08-24T15:15:28.091Z,100550.84
2017-08-24T15:17:55.487Z,100546.39
2017-08-24T15:20:22.879Z,100541.79
2017-08-24T15:22:50.442Z,100542.02
2017-08-24T15:25:17.837Z,100542.27
2017-08-24T15:27:45.230Z,100543.63
2017-08-24T15:30:12.659Z,100544.02
2017-08-24T15:32:40.050Z,100533.09
2017-08-24T15:35:07.443Z,100536.88
2017-08-24T15:37:34.998Z,100536.75
2017-08-24T15:40:02.394Z,100534.69
2017-08-24T15:42:29.799Z,100540.06
2017-08-24T15:44:57.734Z,100535.73
2017-08-24T15:47:25.127Z,100534.90
2017-08-24T15:49:52.522Z,100537.59
2017-08-24T15:52:20.037Z,100539.03
2017-08-24T15:54:47.426Z,100540.03
2017-08-24T15:57:14.823Z,100542.04
2017-08-24T15:59:42.230Z,100545.53
2017-08-24T16:02:09.626Z,100554.07
2017-08-24T16:04:37.031Z,100554.61
2017-08-24T16:07:04.645Z,100549.88
2017-08-24T16:09:32.043Z,100550.41
2017-08-24T16:11:59.474Z,100553.98
2017-08-24T16:14:27.022Z,100557.28
2017-08-24T16:16:54.415Z,100547.55
2017-08-24T16:19:21.818Z,100541.77
2017-08-24T16:21:49.378Z,100538.66
2017-08-24T16:24:16.774Z,100536.67
2017-08-24T16:26:44.176Z,100538.11
2017-08-24T16:29:11.726Z,100534.46
2017-08-24T16:31:39.122Z,100534.97
2017-08-24T16:34:06.540Z,100538.63
2017-08-24T16:36:33.934Z,100540.07
2017-08-24T16:39:01.326Z,100540.89
2017-08-24T16:41:28.765Z,100543.08
2017-08-24T16:43:56.162Z,100544.91
2017-08-24T16:46:23.564Z,100538.55
2017-08-24T16:48:50.963Z,100544.00
2017-08-24T16:51:18.359Z,100537.81
2017-08-24T16:53:45.906Z,100536.27
2017-08-24T16:56:13.299Z,100534.09
2017-08-24T16:58:40.698Z,100531.37
2017-08-24T17:01:08.103Z,100531.41
2017-08-24T17:03:35.500Z,100528.60
2017-08-24T17:06:02.915Z,100530.24
2017-08-24T17:08:30.310Z,100536.22
2017-08-24T17:10:57.705Z,100539.69
2017-08-24T17:13:25.106Z,100534.31
2017-08-24T17:15:52.507Z,100529.23
2017-08-24T17:18:20.059Z,100532.28
2017-08-24T17:20:47.463Z,100526.84
2017-08-24T17:23:14.858Z,100525.56
2017-08-24T17:25:42.374Z,100520.73
2017-08-24T17:28:09.762Z,100527.97
2017-08-24T17:30:37.154Z,100527.88
2017-08-24T17:33:04.663Z,100528.43
2017-08-24T17:35:32.059Z,100522.38
2017-08-24T17:37:59.450Z,100529.88
2017-08-24T17:40:26.878Z,100531.67
2017-08-24T17:42:54.271Z,100534.19
2017-08-24T17:45:21.667Z,100536.98
2017-08-24T17:47:49.207Z,100527.03
2017-08-24T17:50:16.603Z,100527.45
2017-08-24T17:52:43.998Z,100536.05
2017-08-24T17:55:11.402Z,100524.22
2017-08-24T17:57:38.802Z,100531.81
2017-08-24T18:00:06.198Z,100529.41
2017-08-24T18:02:33.744Z,100531.48
2017-08-24T18:05:01.140Z,100535.58
2017-08-24T18:07:28.534Z,100539.97
2017-08-24T18:09:56.085Z,100533.75
2017-08-24T18:12:23.482Z,100533.34
2017-08-24T18:14:50.886Z,100532.56
2017-08-24T18:17:18.435Z,100533.55
2017-08-24T18:19:45.830Z,100531.03
2017-08-24T18:22:13.228Z,100528.63
2017-08-24T18:24:40.658Z,100537.20
2017-08-24T18:27:08.063Z,100534.67
2017-08-24T18:29:35.454Z,100541.61
2017-08-24T18:32:03.010Z,100547.20
2017-08-24T18:34:30.412Z,100545.87
2017-08-24T18:36:57.801Z,100541.68
2017-08-24T18:39:25.355Z,100545.25
2017-08-24T18:41:52.748Z,100547.81
2017-08-24T18:44:20.138Z,100543.51
2017-08-24T18:46:47.709Z,100546.37
2017-08-24T18:49:15.088Z,100550.73
2017-08-24T18:51:42.484Z,100551.72
2017-08-24T18:54:09.898Z,100552.68
2017-08-24T18:56:37.295Z,100556.48
2017-08-24T18:59:04.750Z,100557.58
2017-08-24T19:01:32.498Z,100552.98
2017-08-24T19:03:59.886Z,100554.50
2017-08-24T19:06:27.279Z,100557.56
2017-08-24T19:08:54.774Z,100560.69
2017-08-24T19:11:22.175Z,100560.41
2017-08-24T19:13:49.561Z,100563.66
2017-08-24T19:16:17.118Z,100565.16
2017-08-24T19:18:44.506Z,100562.16
2017-08-24T19:21:11.902Z,100564.59
2017-08-24T19:23:39.458Z,100559.70
2017-08-24T19:26:06.852Z,100574.00
2017-08-24T19:28:34.249Z,100570.17
2017-08-24T19:31:01.699Z,100566.10
2017-08-24T19:33:29.094Z,100570.64
2017-08-24T19:35:56.492Z,100568.98
2017-08-24T19:38:23.987Z,100576.39
2017-08-24T19:40:51.382Z,100571.24
2017-08-24T19:43:18.778Z,100581.20
2017-08-24T19:45:46.220Z,100571.80
2017-08-24T19:48:13.611Z,100569.08
2017-08-24T19:50:41.026Z,100574.72
2017-08-24T19:53:08.778Z,100573.84
2017-08-24T19:55:36.179Z,100575.02
2017-08-24T19:58:03.579Z,100577.38
2017-08-24T20:00:30.986Z,100579.00
2017-08-24T20:02:58.375Z,100576.14
2017-08-24T20:05:25.779Z,100577.30
2017-08-24T20:07:53.194Z,100577.94
2017-08-24T20:10:20.586Z,100578.59
2017-08-24T20:12:47.978Z,100580.31
2017-08-24T20:15:15.387Z,100592.04
2017-08-24T20:17:42.783Z,100591.59
2017-08-24T20:20:10.183Z,100593.41
2017-08-24T20:22:37.646Z,100590.37
2017-08-24T20:25:05.038Z,100602.19
2017-08-24T20:27:32.460Z,100599.59
2017-08-24T20:30:00.166Z,100601.94
2017-08-24T20:32:27.586Z,100595.39
2017-08-24T20:34:54.991Z,100598.98
2017-08-24T20:37:22.538Z,100600.80
2017-08-24T20:39:49.943Z,100598.10
2017-08-24T20:42:17.346Z,100594.34
2017-08-24T20:44:44.758Z,100594.76
2017-08-24T20:47:12.151Z,100600.81
2017-08-24T20:49:39.553Z,100597.73
2017-08-24T20:52:07.099Z,100605.00
2017-08-24T20:54:34.491Z,100609.70
2017-08-24T20:57:01.883Z,100611.25
2017-08-24T20:59:29.430Z,100604.22
2017-08-24T21:01:57.058Z,100606.84
2017-08-24T21:04:24.443Z,100607.45
2017-08-24T21:06:51.951Z,100596.73
2017-08-24T21:09:19.349Z,100597.77
2017-08-24T21:11:46.744Z,100600.42
2017-08-24T21:14:14.254Z,100605.86
2017-08-24T21:16:41.646Z,100605.16
2017-08-24T21:19:09.042Z,100612.80
2017-08-24T21:21:36.591Z,100623.92
2017-08-24T21:24:03.992Z,100620.63
2017-08-24T21:26:31.383Z,100623.50
2017-08-24T21:28:58.837Z,100622.98
2017-08-24T21:31:26.238Z,100626.44
2017-08-24T21:33:53.639Z,100624.30
2017-08-24T21:36:21.143Z,100618.52
2017-08-24T21:38:48.547Z,100621.92
2017-08-24T21:41:15.951Z,100619.08
2017-08-24T21:43:43.498Z,100619.91
2017-08-24T21:46:10.890Z,100627.55
2017-08-24T21:48:38.295Z,100627.45
2017-08-24T21:51:06.231Z,100623.69
2017-08-24T21:53:33.631Z,100620.57
2017-08-24T21:56:01.019Z,100624.66
2017-08-24T21:58:28.574Z,100628.30
2017-08-24T22:00:55.971Z,100633.80
2017-08-24T22:03:23.363Z,100634.30
2017-08-24T22:05:51.178Z,100628.77
2017-08-24T22:08:18.576Z,100633.59
2017-08-24T22:10:45.970Z,100631.77
2017-08-24T22:13:13.523Z,100627.52
2017-08-24T22:15:40.925Z,100631.75
2017-08-24T22:18:08.319Z,100634.16
2017-08-24T22:20:35.874Z,100628.81
2017-08-24T22:23:03.269Z,100629.64
2017-08-24T22:25:30.665Z,100630.06
2017-08-24T22:27:58.231Z,100625.03
2017-08-24T22:30:25.610Z,100622.41
2017-08-24T22:32:53.002Z,100624.25
2017-08-24T22:35:20.413Z,100626.66
2017-08-24T22:37:47.802Z,100624.95
2017-08-24T22:40:15.206Z,100620.56
2017-08-24T22:42:42.978Z,100624.80
2017-08-24T22:45:10.371Z,100627.32
2017-08-24T22:47:37.782Z,100633.30
2017-08-24T22:50:05.207Z,100631.55
2017-08-24T22:52:32.611Z,100633.17
2017-08-24T22:55:05.674Z,100627.73
2017-08-24T22:57:38.611Z,100634.56
2017-08-24T23:00:12.043Z,100638.36
2017-08-24T23:02:45.114Z,100638.66
2017-08-24T23:05:12.563Z,100635.77
2017-08-24T23:07:39.970Z,100639.24
2017-08-24T23:10:07.374Z,100636.70
2017-08-24T23:12:34.879Z,100641.56
2017-08-24T23:15:02.275Z,100636.15
2017-08-24T23:17:29.673Z,100640.14
2017-08-24T23:19:57.078Z,100638.64
2017-08-24T23:22:24.472Z,100639.16
2017-08-24T23:24:51.882Z,100634.42
2017-08-24T23:27:19.391Z,100637.32
2017-08-24T23:29:46.786Z,100639.66
2017-08-24T23:32:14.183Z,100637.09
2017-08-24T23:34:41.740Z,100639.45
2017-08-24T23:37:09.137Z,100647.95
2017-08-24T23:39:36.534Z,100640.72
2017-08-24T23:42:04.298Z,100634.73
2017-08-24T23:44:31.702Z,100636.05
2017-08-24T23:46:59.094Z,100637.14
2017-08-24T23:49:26.915Z,100638.41
2017-08-24T23:51:54.314Z,100633.44
2017-08-24T23:54:21.710Z,100634.86
2017-08-24T23:56:49.218Z,100636.41
2017-08-24T23:59:16.610Z,100636.87
